Time;durP1;ratioP1;P1;durP2;ratioP2;P2;SDS_P1;SDS_P2;PMS_P1;PMS_P2;Temp;Humidity;BMP_temperature;BMP_pressure;BME280_temperature;BME280_humidity;BME280_pressure;Samples;Min_cycle;Max_cycle;Signal;HPM_P1;HPM_P2
2022/12/08 00:01:25;;;;;;;10.27;9.17;;;4.80;99.90;;;;;;5116046;28;20842;-41
2022/12/08 00:03:51;;;;;;;9.60;8.30;;;4.70;99.90;;;;;;5116632;28;20428;-41
2022/12/08 00:09:31;;;;;;;9.90;8.53;;;4.40;1.00;;;;;;5116858;28;20468;-41
2022/12/08 00:12:01;;;;;;;9.73;8.73;;;4.20;99.90;;;;;;5117338;28;20453;-42
2022/12/08 00:14:31;;;;;;;10.77;8.03;;;4.10;99.90;;;;;;5116002;28;20482;-40
2022/12/08 00:16:58;;;;;;;10.23;9.23;;;4.00;1.00;;;;;;5116605;28;20433;-40
2022/12/08 00:19:24;;;;;;;10.17;9.03;;;3.90;1.00;;;;;;5119039;28;20830;-44
2022/12/08 00:21:50;;;;;;;10.20;9.10;;;3.80;1.00;;;;;;5102199;28;20531;-41
2022/12/08 00:24:16;;;;;;;10.20;9.10;;;3.70;99.90;;;;;;5121369;28;20799;-40
2022/12/08 00:26:42;;;;;;;11.73;8.50;;;3.60;99.90;;;;;;5121386;28;20452;-40
2022/12/08 00:29:08;;;;;;;10.03;8.53;;;3.60;99.90;;;;;;5121122;28;20457;-41
2022/12/08 00:31:34;;;;;;;9.70;8.70;;;3.50;99.90;;;;;;5121690;28;20172;-43
2022/12/08 00:34:00;;;;;;;11.13;9.53;;;3.40;99.90;;;;;;5120436;28;20417;-47
2022/12/08 00:36:25;;;;;;;10.40;9.30;;;3.40;99.90;;;;;;5119993;28;20229;-42
2022/12/08 00:38:51;;;;;;;12.33;10.00;;;3.30;95.90;;;;;;5120554;28;20183;-41
2022/12/08 00:44:12;;;;;;;11.27;10.00;;;3.20;43.70;;;;;;5090792;28;20260;-41
2022/12/08 00:46:38;;;;;;;12.43;10.83;;;3.20;23.80;;;;;;5119557;28;20843;-47
2022/12/08 00:49:05;;;;;;;10.23;9.13;;;3.10;24.50;;;;;;5119414;28;20898;-41
2022/12/08 00:51:30;;;;;;;9.60;5.80;;;3.10;1.00;;;;;;5120190;28;20410;-42
2022/12/08 00:53:56;;;;;;;11.43;8.97;;;4.00;99.90;;;;;;5120160;28;20424;-41
2022/12/08 00:56:22;;;;;;;9.17;8.00;;;5.20;1.00;;;;;;5119437;28;20207;-42
2022/12/08 00:58:47;;;;;;;12.43;11.10;;;6.00;1.00;;;;;;5121019;28;20191;-42
2022/12/08 01:01:13;;;;;;;13.50;11.70;;;6.20;1.00;;;;;;5120409;28;20561;-42
2022/12/08 01:03:40;;;;;;;12.33;11.03;;;6.00;1.00;;;;;;5120729;28;20188;-42
2022/12/08 01:06:07;;;;;;;12.53;11.13;;;5.60;99.90;;;;;;5118946;28;20468;-45
2022/12/08 01:08:33;;;;;;;11.60;10.40;;;5.30;27.20;;;;;;5119262;28;20469;-41
2022/12/08 01:11:13;;;;;;;11.63;10.43;;;5.00;99.90;;;;;;5120506;28;20416;-41
2022/12/08 01:13:39;;;;;;;13.23;11.40;;;4.60;99.90;;;;;;5120755;28;20274;-42
2022/12/08 01:16:06;;;;;;;12.60;10.93;;;4.40;1.00;;;;;;5118900;28;20483;-42
2022/12/08 01:18:32;;;;;;;13.20;11.03;;;4.20;1.00;;;;;;5118015;28;20184;-43
2022/12/08 01:21:04;;;;;;;12.03;10.60;;;4.00;99.90;;;;;;5119589;28;20788;-42
2022/12/08 01:23:30;;;;;;;13.40;10.70;;;3.80;47.40;;;;;;5114203;28;20430;-43
2022/12/08 01:26:04;;;;;;;12.77;11.57;;;3.70;1.00;;;;;;5100048;28;20422;-40
2022/12/08 01:28:30;;;;;;;12.20;10.83;;;3.50;1.00;;;;;;5087291;28;20286;-42
2022/12/08 01:30:56;;;;;;;13.17;11.87;;;3.40;99.90;;;;;;5119426;28;20746;-41
2022/12/08 01:33:22;;;;;;;13.10;11.80;;;3.30;99.90;;;;;;5101358;28;20433;-41
2022/12/08 01:35:48;;;;;;;14.50;10.53;;;3.20;99.90;;;;;;5118994;28;20881;-41
2022/12/08 01:38:13;;;;;;;12.00;10.70;;;3.10;86.30;;;;;;5119403;28;20262;-42
2022/12/08 01:40:39;;;;;;;12.63;11.33;;;3.10;18.10;;;;;;5119259;28;20222;-40
2022/12/08 01:43:05;;;;;;;12.93;10.40;;;3.00;1.00;;;;;;5120420;28;20192;-40
2022/12/08 01:45:31;;;;;;;11.43;9.83;;;3.00;1.00;;;;;;5101176;28;20274;-43
2022/12/08 01:48:01;;;;;;;11.33;10.00;;;2.90;1.00;;;;;;5116900;28;20585;-42
2022/12/08 01:50:27;;;;;;;13.70;10.63;;;2.80;1.00;;;;;;5099357;28;20438;-42
2022/12/08 01:52:56;;;;;;;12.90;10.83;;;2.80;1.00;;;;;;5081378;28;20465;-42
2022/12/08 01:55:23;;;;;;;11.50;9.33;;;2.70;1.00;;;;;;5081155;28;20510;-42
2022/12/08 01:57:52;;;;;;;11.30;10.10;;;2.70;1.00;;;;;;5098766;28;20430;-42
2022/12/08 02:00:20;;;;;;;12.80;11.50;;;2.70;99.90;;;;;;5097015;28;20425;-42
2022/12/08 02:02:53;;;;;;;11.53;10.03;;;2.60;99.90;;;;;;5097277;28;20525;-42
2022/12/08 02:05:22;;;;;;;11.70;9.83;;;2.60;99.90;;;;;;5079681;28;20465;-42
2022/12/08 02:07:48;;;;;;;10.87;9.00;;;2.50;99.90;;;;;;5096743;28;20470;-41
2022/12/08 02:10:16;;;;;;;12.60;10.50;;;2.50;99.90;;;;;;5097149;28;20460;-43
2022/12/08 02:12:42;;;;;;;11.40;10.20;;;2.50;99.90;;;;;;5091123;28;20235;-41
2022/12/08 02:15:08;;;;;;;12.70;11.40;;;2.40;99.90;;;;;;5097249;28;20410;-43
2022/12/08 02:17:57;;;;;;;12.13;9.73;;;2.40;99.90;;;;;;5097921;28;20724;-41
2022/12/08 02:20:25;;;;;;;9.70;8.70;;;2.40;99.90;;;;;;5097935;28;20457;-41
2022/12/08 02:22:53;;;;;;;11.17;8.70;;;2.30;99.90;;;;;;5098152;28;20705;-41
2022/12/08 02:28:46;;;;;;;12.83;11.00;;;2.30;58.80;;;;;;5098021;28;20756;-41
2022/12/08 02:31:22;;;;;;;11.00;9.37;;;2.20;32.90;;;;;;5096657;28;20411;-41
2022/12/08 02:34:06;;;;;;;11.57;9.73;;;2.20;27.10;;;;;;5097395;28;20430;-40
2022/12/08 02:36:56;;;;;;;11.60;9.90;;;2.20;23.00;;;;;;5097548;28;20497;-41
2022/12/08 02:39:24;;;;;;;12.37;10.20;;;2.10;11.80;;;;;;5080054;28;20743;-41
2022/12/08 02:42:16;;;;;;;10.80;8.83;;;2.10;1.00;;;;;;5096477;28;20438;-41
2022/12/08 02:44:56;;;;;;;11.87;10.20;;;2.10;1.00;;;;;;5097485;28;20556;-42
2022/12/08 02:47:24;;;;;;;11.43;9.63;;;2.10;1.00;;;;;;5096325;28;20733;-40
2022/12/08 02:49:49;;;;;;;11.63;10.03;;;2.00;1.00;;;;;;5096672;28;20508;-41
2022/12/08 02:52:18;;;;;;;10.60;8.87;;;2.00;1.00;;;;;;5097750;28;20418;-43
2022/12/08 02:54:52;;;;;;;13.43;9.87;;;2.00;1.00;;;;;;5098313;28;20198;-42
2022/12/08 02:57:23;;;;;;;10.20;9.13;;;1.90;1.00;;;;;;5079239;28;20417;-41
2022/12/08 03:00:15;;;;;;;15.77;9.90;;;1.90;1.00;;;;;;5097825;28;20812;-44
2022/12/08 03:03:12;;;;;;;11.10;9.70;;;1.90;1.00;;;;;;5089195;28;20472;-41
2022/12/08 03:05:58;;;;;;;10.07;8.33;;;1.90;1.00;;;;;;5096757;28;20415;-43
2022/12/08 03:08:50;;;;;;;12.47;10.27;;;1.80;1.00;;;;;;5083396;28;20478;-42
2022/12/08 03:11:59;;;;;;;12.77;11.13;;;1.80;1.00;;;;;;5097512;28;20878;-41
2022/12/08 03:14:25;;;;;;;13.30;10.50;;;1.80;1.00;;;;;;5018812;28;20438;-41
2022/12/08 03:16:54;;;;;;;13.23;10.47;;;1.80;1.00;;;;;;5096240;28;20680;-43
2022/12/08 03:19:30;;;;;;;13.73;11.07;;;1.80;1.00;;;;;;5062816;28;20188;-41
2022/12/08 03:22:01;;;;;;;15.27;11.33;;;1.70;1.00;;;;;;5079562;28;20896;-40
2022/12/08 03:24:31;;;;;;;13.03;10.50;;;1.70;1.00;;;;;;5098155;28;20522;-41
2022/12/08 03:27:07;;;;;;;12.10;10.87;;;1.70;1.00;;;;;;5100337;28;20449;-41
2022/12/08 03:29:33;;;;;;;13.93;10.07;;;1.70;1.00;;;;;;5117645;28;20437;-39
2022/12/08 03:32:39;;;;;;;12.47;10.30;;;1.70;1.00;;;;;;5119238;28;20431;-40
2022/12/08 03:35:08;;;;;;;13.60;9.93;;;1.60;1.00;;;;;;5101600;28;20286;-40
2022/12/08 03:37:39;;;;;;;12.77;9.90;;;1.60;1.00;;;;;;5103804;28;20700;-40
2022/12/08 03:40:07;;;;;;;13.27;10.53;;;1.60;1.00;;;;;;5121335;28;20473;-41
2022/12/08 03:42:32;;;;;;;11.57;9.20;;;1.60;1.00;;;;;;5104561;28;20435;-41
2022/12/08 03:44:58;;;;;;;12.13;9.40;;;1.60;1.00;;;;;;5119548;28;20433;-40
2022/12/08 03:47:24;;;;;;;10.97;9.10;;;1.60;1.00;;;;;;5117466;28;20173;-40
2022/12/08 03:49:49;;;;;;;10.27;8.70;;;1.50;1.00;;;;;;5097924;28;20176;-41
2022/12/08 03:52:15;;;;;;;11.37;9.93;;;1.50;1.00;;;;;;5115193;28;20250;-42
2022/12/08 03:54:40;;;;;;;9.83;8.87;;;1.50;1.00;;;;;;5119758;28;20431;-39
2022/12/08 03:57:06;;;;;;;12.77;9.23;;;1.50;1.00;;;;;;5119609;28;20175;-40
2022/12/08 03:59:31;;;;;;;10.07;8.70;;;1.50;1.00;;;;;;5120065;28;20264;-40
2022/12/08 04:01:57;;;;;;;11.27;9.27;;;1.50;1.00;;;;;;5119706;28;20174;-41
2022/12/08 04:04:23;;;;;;;9.03;8.13;;;1.40;1.00;;;;;;5120079;28;20202;-42
2022/12/08 04:06:50;;;;;;;10.60;8.50;;;1.40;1.00;;;;;;5120330;28;20313;-42
2022/12/08 04:09:15;;;;;;;10.43;8.70;;;1.40;1.00;;;;;;5102699;28;20203;-43
2022/12/08 04:11:41;;;;;;;10.50;8.90;;;1.40;1.00;;;;;;5119971;28;20468;-39
2022/12/08 04:14:07;;;;;;;11.03;8.30;;;1.40;1.00;;;;;;5120259;28;20186;-40
2022/12/08 04:16:32;;;;;;;10.53;8.53;;;1.30;1.00;;;;;;5119614;28;20235;-40
2022/12/08 04:18:58;;;;;;;9.30;8.40;;;1.30;1.00;;;;;;5120021;28;20179;-41
2022/12/08 04:21:23;;;;;;;8.97;7.30;;;1.30;99.90;;;;;;5120451;28;20168;-40
2022/12/08 04:23:49;;;;;;;8.90;7.47;;;1.30;99.90;;;;;;5120547;28;20295;-40
2022/12/08 04:26:15;;;;;;;8.87;7.97;;;1.30;99.90;;;;;;5118813;28;20180;-39
2022/12/08 04:28:41;;;;;;;8.37;6.83;;;1.30;99.90;;;;;;5115146;28;20192;-40
2022/12/08 04:31:06;;;;;;;8.90;7.80;;;1.20;1.00;;;;;;5115143;28;20466;-40
2022/12/08 04:33:33;;;;;;;8.87;7.63;;;1.20;1.00;;;;;;5100488;28;20183;-41
2022/12/08 04:35:59;;;;;;;9.70;7.40;;;1.20;1.00;;;;;;5119235;28;20530;-40
2022/12/08 04:38:25;;;;;;;11.23;8.07;;;1.20;1.00;;;;;;5119155;28;20827;-40
2022/12/08 04:40:51;;;;;;;8.07;7.17;;;1.20;1.00;;;;;;5117985;28;20422;-41
2022/12/08 04:43:16;;;;;;;9.73;8.17;;;1.20;1.00;;;;;;5099596;28;20175;-42
2022/12/08 04:45:42;;;;;;;10.43;8.70;;;1.20;99.90;;;;;;5118347;28;20188;-41
2022/12/08 04:48:08;;;;;;;11.60;10.00;;;1.10;99.90;;;;;;5119481;28;20215;-41
2022/12/08 04:50:34;;;;;;;12.50;11.03;;;1.20;1.00;;;;;;5120026;28;20180;-40
2022/12/08 04:52:59;;;;;;;10.80;9.77;;;1.20;1.00;;;;;;5119732;28;20417;-40
2022/12/08 04:55:25;;;;;;;11.30;10.10;;;1.10;1.00;;;;;;5116592;28;20244;-40
2022/12/08 04:57:50;;;;;;;10.30;9.20;;;1.10;1.00;;;;;;5117733;28;20172;-41
2022/12/08 05:00:17;;;;;;;9.57;8.53;;;1.10;1.00;;;;;;5116027;28;20188;-42
2022/12/08 05:02:42;;;;;;;9.77;8.13;;;1.10;1.00;;;;;;5113764;28;20184;-43
2022/12/08 05:05:08;;;;;;;9.93;8.73;;;1.10;1.00;;;;;;5116392;28;20441;-42
2022/12/08 05:07:34;;;;;;;8.03;7.23;;;1.10;1.00;;;;;;5117924;28;20221;-41
2022/12/08 05:09:59;;;;;;;9.27;7.70;;;1.10;1.00;;;;;;5117792;28;20433;-40
2022/12/08 05:12:25;;;;;;;8.90;7.30;;;1.10;1.00;;;;;;5109709;28;20223;-41
2022/12/08 05:14:50;;;;;;;8.70;7.30;;;1.10;1.00;;;;;;5117635;28;20192;-43
2022/12/08 05:17:17;;;;;;;9.13;7.13;;;1.10;1.00;;;;;;5117522;28;20164;-41
2022/12/08 05:19:43;;;;;;;7.93;6.73;;;1.00;1.00;;;;;;5117430;28;20191;-40
2022/12/08 05:22:08;;;;;;;8.10;6.33;;;1.00;1.00;;;;;;5119728;28;20402;-41
2022/12/08 05:24:34;;;;;;;8.23;7.33;;;1.00;99.90;;;;;;5118820;28;20275;-41
2022/12/08 05:27:00;;;;;;;8.23;6.77;;;1.00;99.90;;;;;;5117571;28;20283;-40
2022/12/08 05:29:25;;;;;;;8.20;7.40;;;1.00;99.90;;;;;;5117182;28;20212;-41
2022/12/08 05:31:51;;;;;;;8.43;7.13;;;0.90;99.90;;;;;;5116024;28;20518;-43
2022/12/08 05:34:17;;;;;;;8.33;6.30;;;0.90;99.90;;;;;;5114785;28;20245;-42
2022/12/08 05:36:42;;;;;;;9.50;6.13;;;0.90;99.90;;;;;;5115996;28;20577;-41
2022/12/08 05:39:11;;;;;;;7.83;6.50;;;0.90;99.90;;;;;;5115666;28;20464;-42
2022/12/08 05:41:37;;;;;;;8.10;6.53;;;0.90;99.90;;;;;;5116517;28;20593;-42
2022/12/08 05:44:03;;;;;;;7.23;6.43;;;0.80;99.90;;;;;;5115340;28;20425;-42
2022/12/08 05:46:28;;;;;;;7.40;6.60;;;0.80;99.90;;;;;;5112757;28;20257;-43
2022/12/08 05:48:54;;;;;;;7.60;6.80;;;0.80;99.90;;;;;;5114213;28;20480;-42
2022/12/08 05:51:22;;;;;;;8.47;7.50;;;0.80;99.90;;;;;;5117585;28;20178;-41
2022/12/08 05:53:50;;;;;;;10.63;7.30;;;0.80;99.90;;;;;;5115117;28;20520;-40
2022/12/08 05:56:16;;;;;;;7.57;6.30;;;0.70;99.90;;;;;;5094265;28;20489;-42
2022/12/08 05:58:42;;;;;;;8.20;6.50;;;0.70;99.90;;;;;;5112051;28;20459;-40
2022/12/08 06:01:29;;;;;;;9.00;6.90;;;0.70;99.90;;;;;;5114364;28;20452;-40
2022/12/08 06:03:56;;;;;;;8.53;6.70;;;0.70;99.90;;;;;;5114402;28;20827;-42
2022/12/08 06:06:22;;;;;;;8.67;6.93;;;0.70;99.90;;;;;;5113194;28;20417;-41
2022/12/08 06:08:47;;;;;;;9.43;7.60;;;0.70;99.90;;;;;;5113886;28;20479;-40
2022/12/08 06:11:21;;;;;;;8.50;7.57;;;0.70;99.90;;;;;;5112570;28;20206;-42
2022/12/08 06:13:48;;;;;;;10.17;8.97;;;0.60;99.90;;;;;;5113129;28;20332;-43
2022/12/08 06:16:13;;;;;;;12.00;8.87;;;0.60;99.90;;;;;;5110876;28;20822;-41
2022/12/08 06:18:39;;;;;;;11.73;8.73;;;0.60;99.90;;;;;;5111873;28;20705;-41
2022/12/08 06:21:10;;;;;;;13.77;9.90;;;0.60;99.90;;;;;;5094889;28;20179;-41
2022/12/08 06:23:35;;;;;;;13.30;10.80;;;0.60;99.90;;;;;;5111959;28;20190;-40
2022/12/08 06:26:06;;;;;;;11.50;9.70;;;0.60;99.90;;;;;;5075706;28;20422;-41
2022/12/08 06:28:32;;;;;;;11.20;8.73;;;0.50;99.90;;;;;;5106290;28;20260;-42
2022/12/08 06:30:58;;;;;;;10.93;9.20;;;0.50;99.90;;;;;;5073045;28;21009;-40
2022/12/08 06:33:24;;;;;;;11.80;9.83;;;0.50;99.90;;;;;;5086026;28;20513;-38
2022/12/08 06:35:51;;;;;;;10.53;8.40;;;0.50;99.90;;;;;;5093220;28;20766;-39
2022/12/08 06:38:16;;;;;;;11.37;9.20;;;0.50;99.90;;;;;;5093155;28;20414;-40
2022/12/08 06:40:42;;;;;;;14.53;9.40;;;0.50;99.90;;;;;;5087400;28;20715;-40
2022/12/08 06:43:07;;;;;;;12.00;9.50;;;0.50;99.90;;;;;;5086871;28;20184;-42
2022/12/08 06:45:33;;;;;;;13.80;10.17;;;0.40;99.90;;;;;;5089536;28;20190;-41
2022/12/08 06:48:01;;;;;;;14.40;9.80;;;0.50;99.90;;;;;;5088223;28;20360;-41
2022/12/08 06:50:27;;;;;;;11.27;8.80;;;0.40;99.90;;;;;;5085643;28;20553;-41
2022/12/08 06:52:53;;;;;;;14.13;10.17;;;0.40;99.90;;;;;;5085515;28;20601;-40
2022/12/08 06:55:18;;;;;;;13.37;9.07;;;0.40;99.90;;;;;;5087396;28;20934;-40
2022/12/08 06:57:44;;;;;;;13.30;10.20;;;0.40;99.90;;;;;;5089472;28;20223;-43
2022/12/08 07:00:10;;;;;;;13.20;10.57;;;0.40;99.90;;;;;;5092257;28;20176;-43
2022/12/08 07:02:35;;;;;;;13.60;9.67;;;0.40;99.90;;;;;;5091368;28;20582;-42
2022/12/08 07:05:01;;;;;;;12.73;9.17;;;0.40;99.90;;;;;;5090346;28;20454;-39
2022/12/08 07:07:27;;;;;;;15.10;9.87;;;0.40;99.90;;;;;;5091175;28;20176;-41
2022/12/08 07:09:52;;;;;;;12.70;8.63;;;0.40;99.90;;;;;;5090737;28;20304;-42
2022/12/08 07:12:18;;;;;;;14.83;9.67;;;0.40;99.90;;;;;;5091326;28;20231;-40
2022/12/08 07:14:44;;;;;;;14.90;9.40;;;0.50;99.90;;;;;;5076071;28;20190;-41
2022/12/08 07:17:15;;;;;;;10.70;9.40;;;0.50;99.90;;;;;;5093312;28;20179;-40
2022/12/08 07:19:42;;;;;;;15.47;9.70;;;0.50;99.90;;;;;;5077619;28;20438;-42
2022/12/08 07:22:08;;;;;;;16.17;9.27;;;0.60;99.90;;;;;;5092041;28;20473;-40
2022/12/08 07:24:33;;;;;;;12.77;9.03;;;0.60;99.90;;;;;;5090452;28;20605;-40
2022/12/08 07:26:59;;;;;;;14.87;9.30;;;0.60;99.90;;;;;;5089674;28;20554;-40
2022/12/08 07:29:24;;;;;;;11.13;8.60;;;0.60;99.90;;;;;;5096448;28;20793;-39
2022/12/08 07:31:50;;;;;;;12.73;8.07;;;0.70;99.90;;;;;;5095769;28;20176;-40
2022/12/08 07:34:15;;;;;;;11.73;7.77;;;0.70;99.90;;;;;;5095149;28;20211;-42
2022/12/08 07:36:41;;;;;;;13.10;8.13;;;0.70;99.90;;;;;;5077988;28;20570;-44
2022/12/08 07:39:07;;;;;;;8.83;6.80;;;0.80;99.90;;;;;;5097748;28;20198;-41
2022/12/08 07:41:32;;;;;;;17.07;8.57;;;1.00;99.90;;;;;;5096683;28;20188;-41
2022/12/08 07:43:58;;;;;;;11.17;8.20;;;1.10;99.90;;;;;;5096511;28;20183;-43
2022/12/08 07:46:25;;;;;;;14.27;8.73;;;1.30;99.90;;;;;;5095848;28;20245;-41
2022/12/08 07:48:52;;;;;;;11.93;8.40;;;1.60;1.00;;;;;;5096353;28;20208;-43
2022/12/08 07:51:18;;;;;;;11.27;8.53;;;1.90;1.00;;;;;;5097038;28;20426;-41
2022/12/08 07:53:49;;;;;;;9.07;8.10;;;2.20;1.00;;;;;;5095109;28;20430;-42
2022/12/08 07:56:14;;;;;;;13.47;7.77;;;2.60;99.90;;;;;;5097031;28;20430;-42
2022/12/08 07:58:40;;;;;;;14.00;9.10;;;3.10;99.90;;;;;;5098086;28;20538;-42
2022/12/08 08:01:14;;;;;;;9.57;8.07;;;3.50;1.00;;;;;;5097695;28;20177;-41
2022/12/08 08:03:39;;;;;;;10.10;8.30;;;3.90;1.00;;;;;;5077229;28;20794;-41
2022/12/08 08:06:05;;;;;;;10.03;8.20;;;4.40;1.00;;;;;;5093856;28;20438;-42
2022/12/08 08:08:31;;;;;;;10.33;8.40;;;4.80;99.90;;;;;;5096496;28;20570;-42
2022/12/08 08:10:57;;;;;;;11.30;8.30;;;5.30;99.90;;;;;;5096758;28;20242;-42
2022/12/08 08:13:22;;;;;;;12.70;8.70;;;5.70;99.90;;;;;;5093534;28;20453;-43
2022/12/08 08:15:48;;;;;;;9.33;7.90;;;6.10;99.90;;;;;;5092994;28;20481;-41
2022/12/08 08:18:13;;;;;;;12.40;8.70;;;6.60;99.90;;;;;;5094339;28;20169;-44
2022/12/08 08:20:39;;;;;;;9.70;8.70;;;7.00;57.30;;;;;;5094794;28;20585;-44
2022/12/08 08:23:05;;;;;;;10.83;9.00;;;7.40;13.60;;;;;;5095441;28;20176;-42
2022/12/08 08:25:30;;;;;;;10.33;8.27;;;7.80;1.00;;;;;;5076682;28;20517;-42
2022/12/08 08:27:56;;;;;;;9.20;7.73;;;8.20;1.00;;;;;;5096393;28;20218;-41
2022/12/08 08:30:22;;;;;;;7.90;7.10;;;8.60;1.00;;;;;;5096121;28;20177;-44
2022/12/08 08:32:48;;;;;;;10.00;8.40;;;9.00;1.00;;;;;;5096649;28;20666;-40
2022/12/08 08:35:14;;;;;;;7.03;6.37;;;9.40;1.00;;;;;;5098750;28;20172;-43
2022/12/08 08:37:39;;;;;;;9.40;6.40;;;9.80;1.00;;;;;;5098424;28;20419;-42
2022/12/08 08:40:06;;;;;;;7.60;6.70;;;10.20;1.00;;;;;;5094991;28;20215;-42
2022/12/08 08:42:31;;;;;;;6.40;5.60;;;10.70;1.00;;;;;;5097646;28;20268;-42
2022/12/08 08:44:58;;;;;;;6.63;5.73;;;11.10;1.00;;;;;;5096245;28;20525;-40
2022/12/08 08:47:24;;;;;;;7.17;6.43;;;11.60;1.00;;;;;;5079904;28;20174;-41
2022/12/08 08:49:49;;;;;;;6.97;6.27;;;12.00;1.00;;;;;;5097165;28;20430;-42
2022/12/08 08:52:15;;;;;;;5.73;5.10;;;12.40;1.00;;;;;;5096541;28;20263;-43
2022/12/08 08:54:40;;;;;;;7.30;6.60;;;12.80;1.00;;;;;;5095473;28;20216;-43
2022/12/08 08:57:07;;;;;;;6.00;5.50;;;13.30;1.00;;;;;;5094978;28;20434;-41
2022/12/08 08:59:32;;;;;;;6.37;5.70;;;13.70;1.00;;;;;;5094027;28;20497;-44
2022/12/08 09:01:58;;;;;;;6.03;5.43;;;14.20;1.00;;;;;;5091316;28;20418;-42
2022/12/08 09:04:24;;;;;;;6.03;4.63;;;14.50;1.00;;;;;;5093498;28;20169;-41
2022/12/08 09:06:50;;;;;;;5.97;5.03;;;14.90;1.00;;;;;;5096134;28;20169;-44
2022/12/08 09:09:16;;;;;;;6.20;5.20;;;15.30;1.00;;;;;;5097060;28;20556;-43
2022/12/08 09:11:42;;;;;;;5.80;5.20;;;15.70;1.00;;;;;;5097283;28;20698;-44
2022/12/08 09:14:16;;;;;;;5.37;4.87;;;16.10;1.00;;;;;;5097276;28;20422;-42
2022/12/08 09:16:42;;;;;;;5.03;4.50;;;16.50;1.00;;;;;;5097237;28;20437;-44
2022/12/08 09:19:07;;;;;;;6.00;5.40;;;16.80;1.00;;;;;;5097592;28;20414;-44
2022/12/08 09:21:33;;;;;;;2.67;2.10;;;17.20;1.00;;;;;;5097848;28;20430;-48
2022/12/08 09:23:59;;;;;;;3.63;2.63;;;17.70;1.00;;;;;;5098151;28;20407;-49
2022/12/08 09:26:26;;;;;;;3.13;2.83;;;18.40;1.00;;;;;;5097407;28;20177;-52
2022/12/08 09:28:53;;;;;;;3.13;2.83;;;19.10;1.00;;;;;;5097827;28;20211;-49
2022/12/08 09:31:20;;;;;;;3.80;3.27;;;19.60;1.00;;;;;;5097624;28;20501;-45
2022/12/08 09:33:46;;;;;;;4.63;3.13;;;20.30;1.00;;;;;;5096078;28;20411;-48
2022/12/08 09:36:12;;;;;;;4.90;4.40;;;21.30;1.00;;;;;;5097513;28;20433;-45
2022/12/08 09:38:38;;;;;;;3.00;2.70;;;22.70;1.00;;;;;;5095789;28;20414;-44
2022/12/08 09:41:16;;;;;;;3.90;3.30;;;24.10;1.00;;;;;;5096513;28;20418;-48
2022/12/08 09:43:41;;;;;;;3.60;3.27;;;25.50;1.00;;;;;;5096291;28;20888;-46
2022/12/08 09:46:09;;;;;;;3.70;3.40;;;26.60;1.00;;;;;;5096606;28;20525;-45
2022/12/08 09:48:42;;;;;;;3.50;3.20;;;27.60;1.00;;;;;;5096654;28;20203;-45
2022/12/08 09:51:08;;;;;;;3.77;3.37;;;28.40;1.00;;;;;;5079076;28;20425;-45
2022/12/08 09:53:43;;;;;;;3.43;3.13;;;29.10;1.00;;;;;;5078908;28;20407;-46
2022/12/08 09:56:31;;;;;;;4.47;4.07;;;29.80;1.00;;;;;;5095536;28;20875;-45
2022/12/08 09:59:16;;;;;;;4.00;3.70;;;30.30;1.00;;;;;;5077910;28;20406;-45
2022/12/08 10:01:42;;;;;;;4.00;3.60;;;30.70;1.00;;;;;;5060906;28;21022;-45
2022/12/08 10:04:49;;;;;;;3.93;3.63;;;31.20;1.00;;;;;;5108982;28;20405;-47
2022/12/08 10:07:30;;;;;;;5.27;3.90;;;31.60;1.00;;;;;;5097417;28;20568;-47
2022/12/08 10:10:05;;;;;;;4.17;3.87;;;32.10;1.00;;;;;;5117180;28;20413;-45
2022/12/08 10:12:53;;;;;;;4.27;3.90;;;32.50;1.00;;;;;;5108556;28;20473;-45
2022/12/08 10:15:45;;;;;;;4.70;4.30;;;32.50;1.00;;;;;;5094104;28;20453;-47
2022/12/08 10:18:17;;;;;;;4.50;4.20;;;32.60;1.00;;;;;;5116669;28;20441;-46
2022/12/08 10:20:46;;;;;;;4.00;3.53;;;32.80;1.00;;;;;;5116877;28;20404;-47
2022/12/08 10:23:11;;;;;;;4.10;3.80;;;32.80;1.00;;;;;;5115903;28;20404;-45
2022/12/08 10:25:44;;;;;;;4.37;3.97;;;32.70;1.00;;;;;;5117424;28;20426;-47
2022/12/08 10:28:10;;;;;;;4.73;4.33;;;32.40;1.00;;;;;;5116643;28;20577;-46
2022/12/08 10:30:36;;;;;;;3.63;3.33;;;32.10;1.00;;;;;;5097761;28;20405;-46
2022/12/08 10:33:02;;;;;;;5.00;4.53;;;31.70;1.00;;;;;;5115077;28;20806;-47
2022/12/08 10:35:44;;;;;;;4.23;3.90;;;31.40;1.00;;;;;;5117111;28;20462;-47
2022/12/08 10:38:22;;;;;;;4.13;3.80;;;31.20;1.00;;;;;;5115869;28;20520;-51
2022/12/08 10:40:50;;;;;;;4.27;3.97;;;31.00;1.00;;;;;;5116713;28;20415;-45
2022/12/08 10:43:24;;;;;;;3.80;3.50;;;30.80;1.00;;;;;;5115497;28;20389;-47
2022/12/08 10:45:50;;;;;;;4.43;4.03;;;30.80;1.00;;;;;;5116766;28;20400;-46
2022/12/08 10:48:34;;;;;;;4.50;3.87;;;31.00;1.00;;;;;;5116969;28;20870;-46
2022/12/08 10:51:01;;;;;;;4.00;3.60;;;31.20;1.00;;;;;;5108539;28;20434;-46
2022/12/08 10:53:31;;;;;;;4.10;3.80;;;30.90;1.00;;;;;;5093641;28;20415;-54
2022/12/08 10:56:00;;;;;;;4.53;3.80;;;30.80;1.00;;;;;;5095695;28;20514;-52
2022/12/08 10:58:32;;;;;;;4.10;3.50;;;30.40;1.00;;;;;;5096615;28;20866;-45
2022/12/08 11:01:05;;;;;;;4.03;3.73;;;29.90;1.00;;;;;;5095283;28;20432;-46
2022/12/08 11:03:34;;;;;;;3.93;3.63;;;29.80;1.00;;;;;;5105210;28;20423;-47
2022/12/08 11:06:09;;;;;;;4.53;4.13;;;30.40;1.00;;;;;;5114293;28;20887;-48
2022/12/08 11:08:49;;;;;;;4.70;4.30;;;31.50;1.00;;;;;;5115036;28;20425;-45
2022/12/08 11:11:15;;;;;;;4.83;4.33;;;32.90;1.00;;;;;;5113364;28;20837;-48
2022/12/08 11:13:41;;;;;;;4.47;4.07;;;34.00;1.00;;;;;;5096288;28;20734;-51
2022/12/08 11:16:06;;;;;;;4.80;4.40;;;35.00;1.00;;;;;;5115648;28;20404;-50
2022/12/08 11:18:40;;;;;;;4.27;3.97;;;35.90;1.00;;;;;;5114314;28;20467;-46
2022/12/08 11:21:12;;;;;;;4.33;4.03;;;36.60;1.00;;;;;;5114151;28;20180;-47
2022/12/08 11:23:40;;;;;;;5.13;4.30;;;37.10;1.00;;;;;;5113464;28;20471;-47
2022/12/08 11:26:14;;;;;;;4.53;4.13;;;37.10;1.00;;;;;;5113460;28;20475;-45
2022/12/08 11:28:40;;;;;;;4.90;4.47;;;37.20;1.00;;;;;;5097577;28;20426;-49
2022/12/08 11:31:33;;;;;;;4.40;4.00;;;37.80;1.00;;;;;;5115335;28;20430;-47
2022/12/08 11:33:59;;;;;;;4.60;4.20;;;38.00;1.00;;;;;;5083104;28;20189;-48
2022/12/08 11:36:27;;;;;;;4.50;4.20;;;38.10;1.00;;;;;;5094100;28;20431;-47
2022/12/08 11:38:59;;;;;;;4.93;4.53;;;38.40;1.00;;;;;;5112738;28;20489;-46
2022/12/08 11:41:38;;;;;;;5.27;4.87;;;38.40;1.00;;;;;;5094835;28;20870;-50
2022/12/08 11:44:28;;;;;;;5.40;5.00;;;38.50;1.00;;;;;;5113343;28;20508;-48
2022/12/08 11:46:55;;;;;;;5.60;4.83;;;38.90;1.00;;;;;;5095044;28;20481;-49
2022/12/08 11:49:34;;;;;;;4.07;3.77;;;39.10;1.00;;;;;;5113117;28;20445;-49
2022/12/08 11:52:21;;;;;;;4.37;4.03;;;39.50;1.00;;;;;;5110808;28;20862;-48
2022/12/08 11:54:52;;;;;;;4.30;4.00;;;39.30;1.00;;;;;;5092267;28;20462;-47
2022/12/08 11:57:19;;;;;;;3.90;3.60;;;38.90;1.00;;;;;;5098775;28;20441;-47
2022/12/08 11:59:49;;;;;;;4.73;4.30;;;38.90;1.00;;;;;;5099696;28;21079;-46
2022/12/08 12:02:23;;;;;;;4.53;4.23;;;39.00;1.00;;;;;;5092422;28;20443;-48
2022/12/08 12:05:06;;;;;;;4.20;3.90;;;39.40;1.00;;;;;;5091418;28;20451;-46
2022/12/08 12:07:40;;;;;;;4.37;4.07;;;38.90;1.00;;;;;;5092142;28;20415;-48
2022/12/08 12:10:27;;;;;;;4.30;3.90;;;37.40;1.00;;;;;;5110430;28;20463;-46
2022/12/08 12:13:01;;;;;;;4.20;3.90;;;36.90;1.00;;;;;;5106823;28;20514;-49
2022/12/08 12:15:30;;;;;;;4.50;4.10;;;36.40;1.00;;;;;;5116896;28;20449;-48
2022/12/08 12:18:03;;;;;;;3.80;3.50;;;35.80;1.00;;;;;;5116495;28;20783;-48
2022/12/08 12:20:58;;;;;;;4.70;4.30;;;35.60;1.00;;;;;;5116515;28;20449;-46
2022/12/08 12:23:34;;;;;;;4.43;4.13;;;35.80;1.00;;;;;;5117046;28;20506;-48
2022/12/08 12:26:01;;;;;;;4.57;4.20;;;36.30;1.00;;;;;;5115985;28;20423;-48
2022/12/08 12:28:34;;;;;;;3.90;3.60;;;36.60;1.00;;;;;;5112994;28;20448;-46
2022/12/08 12:31:06;;;;;;;4.43;4.13;;;37.00;1.00;;;;;;5115501;28;20945;-47
2022/12/08 12:33:33;;;;;;;4.50;4.10;;;37.20;1.00;;;;;;5113819;28;20487;-47
2022/12/08 12:36:03;;;;;;;4.20;3.83;;;37.50;1.00;;;;;;5114968;28;20809;-52
2022/12/08 12:41:44;;;;;;;4.63;4.30;;;37.20;1.00;;;;;;5112453;28;20425;-50
2022/12/08 12:44:12;;;;;;;4.40;4.10;;;36.70;1.00;;;;;;5114706;28;20406;-47
2022/12/08 12:46:53;;;;;;;3.80;3.50;;;35.90;1.00;;;;;;5116462;28;20437;-48
2022/12/08 12:49:38;;;;;;;4.63;4.17;;;34.80;1.00;;;;;;5114090;28;20431;-49
2022/12/08 12:52:16;;;;;;;5.07;4.67;;;33.50;1.00;;;;;;5114987;27;20500;-50
2022/12/08 12:54:48;;;;;;;3.90;3.60;;;33.20;1.00;;;;;;5114790;28;20535;-49
2022/12/08 12:57:17;;;;;;;4.37;3.97;;;33.40;1.00;;;;;;5116597;28;20824;-48
2022/12/08 12:59:44;;;;;;;4.30;3.90;;;33.00;1.00;;;;;;5116361;28;20593;-48
2022/12/08 13:02:27;;;;;;;4.23;3.83;;;32.00;1.00;;;;;;5116110;28;20440;-50
2022/12/08 13:05:08;;;;;;;4.30;3.97;;;31.80;1.00;;;;;;5118058;28;20897;-49
2022/12/08 13:07:40;;;;;;;4.40;4.00;;;31.50;1.00;;;;;;5113687;28;20573;-51
2022/12/08 13:10:18;;;;;;;4.37;3.97;;;31.50;1.00;;;;;;5114731;28;20718;-51
2022/12/08 13:12:44;;;;;;;4.17;3.87;;;31.50;1.00;;;;;;5113781;28;20597;-49
2022/12/08 13:15:19;;;;;;;4.17;3.87;;;31.70;1.00;;;;;;5116872;28;20684;-49
2022/12/08 13:17:47;;;;;;;5.00;4.10;;;31.30;1.00;;;;;;5114085;28;20492;-49